Terminal Aerodrome Forecast
Issued by NWS Tampa Bay Area, FL

Home | Current Version | Previous Version | Text Only | Print | Product List | Glossary Off
Versions: 1 2 3 4 5 6 7 8 9 10 11 12 13

142
FTUS42 KTBW 231129
TAFSRQ
TAF
KSRQ 231129Z 2312/2412 07007KT P6SM FEW025 SCT250
     FM231700 03006KT P6SM FEW030 SCT100 SCT250
     FM232000 34007KT P6SM VCTS SCT035CB SCT100
     FM240000 08006KT P6SM VCTS FEW025CB BKN100
     FM240300 10004KT P6SM FEW040 SCT100 BKN250=

USA.gov is the U.S. government's official web portal to all federal, state and local government web resources and services.